Terminal Aerodrome Forecast
Issued by NWS

Home | Current Version | Previous Version | Text Only | Print | Product List | Glossary On
Versions: 1 2 3 4 5 6 7 8 9 10 11 12 13 14 15 16 17 18 19 20 21 22 23 24 25 26 27 28 29 30 31 32 33 34 35 36 37 38 39 40 41 42 43 44 45 46 47 48 49 50
000
FTUS44 KHGX 281335 CCA
TAFIAH
TAF COR
KIAH 281335Z 2814/2918 09008KT P6SM SCT008 BKN025
     FM281430 11014KT P6SM VCSH FEW010 SCT025
     FM282100 11009KT P6SM SCT040 BKN250
     FM290900 12007KT P6SM VCSH FEW018 SCT250
     FM291300 16007KT P6SM SCT025=

USA.gov is the U.S. government's official web portal to all federal, state and local government web resources and services.